Time;durP1;ratioP1;P1;durP2;ratioP2;P2;SDS_P1;SDS_P2;PMS_P1;PMS_P2;Temp;Humidity;BMP_temperature;BMP_pressure;BME280_temperature;BME280_humidity;BME280_pressure;Samples;Min_cycle;Max_cycle;Signal;HPM_P1;HPM_P2
2023/09/07 00:02:12;;;;;;;;;;;;;;;;;;5073870;28;19938;-53
2023/09/07 00:04:37;;;;;;;;;;;;;;;;;;5074526;28;19920;-51
2023/09/07 00:07:03;;;;;;;;;;;;;;;;;;5076434;28;19917;-50
2023/09/07 00:09:28;;;;;;;;;;;;;;;;;;5074377;28;19948;-53
2023/09/07 00:11:54;;;;;;;;;;;;;;;;;;5078804;28;19913;-55
2023/09/07 00:14:19;;;;;;;;;;;;;;;;;;5074425;28;19980;-54
2023/09/07 00:16:45;;;;;;;;;;;;;;;;;;5083638;28;19916;-55
2023/09/07 00:19:10;;;;;;;;;;;;;;;;;;5077620;28;19913;-51
2023/09/07 00:21:37;;;;;;;;;;;;;;;;;;5056777;28;19913;-51
2023/09/07 00:24:05;;;;;;;;;;;;;;;;;;5074051;28;19968;-54
2023/09/07 00:26:30;;;;;;;;;;;;;;;;;;5077942;28;19913;-53
2023/09/07 00:28:56;;;;;;;;;;;;;;;;;;5077783;28;19974;-52
2023/09/07 00:31:21;;;;;;;;;;;;;;;;;;5054140;28;19924;-51
2023/09/07 00:33:47;;;;;;;;;;;;;;;;;;5077718;28;19975;-51
2023/09/07 00:36:12;;;;;;;;;;;;;;;;;;5063350;28;19913;-54
2023/09/07 00:38:38;;;;;;;;;;;;;;;;;;5050732;28;19913;-55
2023/09/07 00:41:04;;;;;;;;;;;;;;;;;;5060603;28;19913;-53
2023/09/07 00:43:30;;;;;;;;;;;;;;;;;;5074867;28;19913;-56
2023/09/07 00:45:55;;;;;;;;;;;;;;;;;;5093579;28;19920;-56
2023/09/07 00:48:21;;;;;;;;;;;;;;;;;;5075841;28;19931;-54
2023/09/07 00:50:46;;;;;;;;;;;;;;;;;;5060119;28;19924;-54
2023/09/07 00:53:12;;;;;;;;;;;;;;;;;;5078441;28;19968;-52
2023/09/07 00:55:37;;;;;;;;;;;;;;;;;;5074752;28;19959;-53
2023/09/07 00:58:03;;;;;;;;;;;;;;;;;;5057614;28;19927;-54
2023/09/07 01:00:28;;;;;;;;;;;;;;;;;;5059846;28;20017;-55
2023/09/07 01:02:53;;;;;;;;;;;;;;;;;;5068620;28;19921;-50
2023/09/07 01:05:20;;;;;;;;;;;;;;;;;;5059656;28;20296;-54
2023/09/07 01:07:46;;;;;;;;;;;;;;;;;;5059524;28;19917;-53
2023/09/07 01:10:13;;;;;;;;;;;;;;;;;;5059493;28;19920;-54
2023/09/07 01:12:38;;;;;;;;;;;;;;;;;;5063008;28;19913;-54
2023/09/07 01:15:04;;;;;;;;;;;;;;;;;;5068788;28;19972;-52
2023/09/07 01:17:30;;;;;;;;;;;;;;;;;;5084158;28;19912;-54
2023/09/07 01:19:55;;;;;;;;;;;;;;;;;;5096077;28;19913;-54
2023/09/07 01:22:24;;;;;;;;;;;;;;;;;;5101930;28;19916;-53
2023/09/07 01:24:49;;;;;;;;;;;;;;;;;;5096401;28;19912;-54
2023/09/07 01:27:15;;;;;;;;;;;;;;;;;;5098526;28;19946;-54
2023/09/07 01:29:40;;;;;;;;;;;;;;;;;;5085450;28;19980;-54
2023/09/07 01:32:06;;;;;;;;;;;;;;;;;;5095803;28;19920;-54
2023/09/07 01:34:31;;;;;;;;;;;;;;;;;;5095901;28;19927;-53
2023/09/07 01:36:57;;;;;;;;;;;;;;;;;;5097314;28;19967;-55
2023/09/07 01:39:23;;;;;;;;;;;;;;;;;;5095699;28;19924;-53
2023/09/07 01:41:48;;;;;;;;;;;;;;;;;;5096155;28;19983;-52
2023/09/07 01:44:14;;;;;;;;;;;;;;;;;;5106696;28;19912;-53
2023/09/07 01:46:39;;;;;;;;;;;;;;;;;;5095666;28;19972;-54
2023/09/07 01:49:04;;;;;;;;;;;;;;;;;;5082264;28;19917;-52
2023/09/07 01:51:30;;;;;;;;;;;;;;;;;;5085919;28;19919;-53
2023/09/07 01:53:55;;;;;;;;;;;;;;;;;;5094739;28;19920;-55
2023/09/07 01:56:21;;;;;;;;;;;;;;;;;;5095180;28;19917;-54
2023/09/07 01:58:47;;;;;;;;;;;;;;;;;;5095369;28;19927;-51
2023/09/07 02:01:12;;;;;;;;;;;;;;;;;;5095458;28;19909;-49
2023/09/07 02:03:38;;;;;;;;;;;;;;;;;;5096077;28;19927;-51
2023/09/07 02:06:03;;;;;;;;;;;;;;;;;;5096274;28;19920;-50
2023/09/07 02:08:29;;;;;;;;;;;;;;;;;;5090073;28;20118;-53
2023/09/07 02:10:56;;;;;;;;;;;;;;;;;;5085091;28;19968;-51
2023/09/07 02:13:21;;;;;;;;;;;;;;;;;;5103421;28;19942;-53
2023/09/07 02:15:47;;;;;;;;;;;;;;;;;;5095960;28;19912;-52
2023/09/07 02:18:13;;;;;;;;;;;;;;;;;;5095098;28;19916;-52
2023/09/07 02:20:38;;;;;;;;;;;;;;;;;;5096036;28;19955;-52
2023/09/07 02:23:04;;;;;;;;;;;;;;;;;;5095881;28;19923;-52
2023/09/07 02:25:30;;;;;;;;;;;;;;;;;;5095826;28;19983;-53
2023/09/07 02:27:56;;;;;;;;;;;;;;;;;;5094936;28;19924;-52
2023/09/07 02:30:22;;;;;;;;;;;;;;;;;;5094677;28;19912;-51
2023/09/07 02:32:48;;;;;;;;;;;;;;;;;;5100833;28;19919;-55
2023/09/07 02:35:13;;;;;;;;;;;;;;;;;;5099060;28;20016;-52
2023/09/07 02:37:39;;;;;;;;;;;;;;;;;;5094712;28;19912;-55
2023/09/07 02:40:08;;;;;;;;;;;;;;;;;;5094349;28;19912;-51
2023/09/07 02:42:34;;;;;;;;;;;;;;;;;;5094784;28;19912;-52
2023/09/07 02:45:00;;;;;;;;;;;;;;;;;;5094543;28;19913;-50
2023/09/07 02:47:25;;;;;;;;;;;;;;;;;;5094247;28;19988;-53
2023/09/07 02:49:51;;;;;;;;;;;;;;;;;;5094640;28;19926;-53
2023/09/07 02:52:16;;;;;;;;;;;;;;;;;;5093844;28;19916;-54
2023/09/07 02:54:42;;;;;;;;;;;;;;;;;;5097103;28;19912;-51
2023/09/07 02:57:08;;;;;;;;;;;;;;;;;;5095432;28;20353;-50
2023/09/07 02:59:33;;;;;;;;;;;;;;;;;;5096870;28;19921;-52
2023/09/07 03:01:59;;;;;;;;;;;;;;;;;;5094524;28;19912;-52
2023/09/07 03:04:24;;;;;;;;;;;;;;;;;;5095099;28;19916;-53
2023/09/07 03:06:50;;;;;;;;;;;;;;;;;;5095293;28;19919;-49
2023/09/07 03:09:16;;;;;;;;;;;;;;;;;;5093915;28;19913;-54
2023/09/07 03:11:41;;;;;;;;;;;;;;;;;;5094989;28;19908;-54
2023/09/07 03:14:07;;;;;;;;;;;;;;;;;;5104585;28;19916;-54
2023/09/07 03:16:32;;;;;;;;;;;;;;;;;;5089676;28;19912;-50
2023/09/07 03:18:57;;;;;;;;;;;;;;;;;;5078119;28;19969;-53
2023/09/07 03:21:29;;;;;;;;;;;;;;;;;;5040945;28;19913;-48
2023/09/07 03:23:55;;;;;;;;;;;;;;;;;;5075818;28;19917;-51
2023/09/07 03:26:21;;;;;;;;;;;;;;;;;;5057341;28;19917;-51
2023/09/07 03:28:47;;;;;;;;;;;;;;;;;;5057167;28;19920;-51
2023/09/07 03:31:12;;;;;;;;;;;;;;;;;;5057203;28;19913;-54
2023/09/07 03:33:38;;;;;;;;;;;;;;;;;;5057495;28;19944;-55
2023/09/07 03:36:03;;;;;;;;;;;;;;;;;;5056854;28;19912;-48
2023/09/07 03:38:29;;;;;;;;;;;;;;;;;;5057273;28;19923;-49
2023/09/07 03:40:54;;;;;;;;;;;;;;;;;;5074717;28;19920;-49
2023/09/07 03:43:20;;;;;;;;;;;;;;;;;;5060403;28;19920;-48
2023/09/07 03:45:45;;;;;;;;;;;;;;;;;;5078732;28;19920;-48
2023/09/07 03:48:10;;;;;;;;;;;;;;;;;;5057264;28;19995;-56
2023/09/07 03:50:37;;;;;;;;;;;;;;;;;;5057277;28;19913;-53
2023/09/07 03:53:03;;;;;;;;;;;;;;;;;;5057017;28;19975;-55
2023/09/07 03:55:28;;;;;;;;;;;;;;;;;;5066288;28;19913;-49
2023/09/07 03:57:54;;;;;;;;;;;;;;;;;;5057153;28;19919;-54
2023/09/07 04:00:19;;;;;;;;;;;;;;;;;;5074949;28;19919;-50
2023/09/07 04:02:46;;;;;;;;;;;;;;;;;;5050188;28;19913;-50
2023/09/07 04:05:13;;;;;;;;;;;;;;;;;;5061760;28;19951;-55
2023/09/07 04:07:38;;;;;;;;;;;;;;;;;;5094357;28;19917;-54
2023/09/07 04:10:04;;;;;;;;;;;;;;;;;;5060258;28;19924;-53
2023/09/07 04:12:29;;;;;;;;;;;;;;;;;;5078366;28;19928;-53
2023/09/07 04:14:55;;;;;;;;;;;;;;;;;;5060668;28;19955;-56
2023/09/07 04:17:20;;;;;;;;;;;;;;;;;;5077792;28;19928;-57
2023/09/07 04:19:47;;;;;;;;;;;;;;;;;;5060835;28;19913;-55
2023/09/07 04:22:12;;;;;;;;;;;;;;;;;;5060575;28;19908;-56
2023/09/07 04:24:38;;;;;;;;;;;;;;;;;;5094181;28;19985;-56
2023/09/07 04:27:04;;;;;;;;;;;;;;;;;;5060214;28;19920;-58
2023/09/07 04:29:31;;;;;;;;;;;;;;;;;;5079761;28;19935;-55
2023/09/07 04:31:57;;;;;;;;;;;;;;;;;;5060600;28;20004;-56
2023/09/07 04:34:23;;;;;;;;;;;;;;;;;;5067971;28;19917;-56
2023/09/07 04:36:49;;;;;;;;;;;;;;;;;;5065221;28;19913;-53
2023/09/07 04:39:15;;;;;;;;;;;;;;;;;;5060314;28;20368;-56
2023/09/07 04:41:40;;;;;;;;;;;;;;;;;;5059849;28;19913;-51
2023/09/07 04:44:05;;;;;;;;;;;;;;;;;;5064681;28;20026;-55
2023/09/07 04:46:31;;;;;;;;;;;;;;;;;;5082178;28;19913;-57
2023/09/07 04:48:56;;;;;;;;;;;;;;;;;;5063932;28;19920;-57
2023/09/07 04:51:23;;;;;;;;;;;;;;;;;;5080443;28;19920;-55
2023/09/07 04:53:49;;;;;;;;;;;;;;;;;;5066524;28;19916;-55
2023/09/07 04:56:16;;;;;;;;;;;;;;;;;;5077315;28;19935;-54
2023/09/07 04:58:41;;;;;;;;;;;;;;;;;;5093797;28;19912;-51
2023/09/07 05:01:08;;;;;;;;;;;;;;;;;;5064137;28;19924;-56
2023/09/07 05:03:34;;;;;;;;;;;;;;;;;;5059898;28;19944;-50
2023/09/07 05:05:59;;;;;;;;;;;;;;;;;;5059721;28;19928;-53
2023/09/07 05:08:25;;;;;;;;;;;;;;;;;;5059764;28;19980;-54
2023/09/07 05:10:50;;;;;;;;;;;;;;;;;;5059146;28;19919;-57
2023/09/07 05:13:17;;;;;;;;;;;;;;;;;;5059644;28;19940;-53
2023/09/07 05:15:43;;;;;;;;;;;;;;;;;;5059804;28;19920;-52
2023/09/07 05:18:08;;;;;;;;;;;;;;;;;;5087304;28;19916;-53
2023/09/07 05:20:33;;;;;;;;;;;;;;;;;;5096274;28;19923;-53
2023/09/07 05:23:00;;;;;;;;;;;;;;;;;;5097227;28;20182;-54
2023/09/07 05:25:26;;;;;;;;;;;;;;;;;;5096222;28;19912;-52
2023/09/07 05:27:51;;;;;;;;;;;;;;;;;;5096328;28;19916;-52
2023/09/07 05:30:17;;;;;;;;;;;;;;;;;;5104965;28;19920;-54
2023/09/07 05:32:42;;;;;;;;;;;;;;;;;;5084685;28;19913;-53
2023/09/07 05:35:09;;;;;;;;;;;;;;;;;;5104094;28;19971;-53
2023/09/07 05:37:34;;;;;;;;;;;;;;;;;;5095866;28;19916;-53
2023/09/07 05:40:00;;;;;;;;;;;;;;;;;;5102602;28;19927;-53
2023/09/07 05:42:25;;;;;;;;;;;;;;;;;;5095812;28;19912;-51
2023/09/07 05:44:51;;;;;;;;;;;;;;;;;;5095698;28;19920;-50
2023/09/07 05:47:17;;;;;;;;;;;;;;;;;;5092258;28;19920;-53
2023/09/07 05:49:43;;;;;;;;;;;;;;;;;;5093101;28;19923;-54
2023/09/07 05:52:08;;;;;;;;;;;;;;;;;;5094478;28;19912;-51
2023/09/07 05:54:34;;;;;;;;;;;;;;;;;;5096507;28;19951;-53
2023/09/07 05:56:59;;;;;;;;;;;;;;;;;;5096205;28;19931;-52
2023/09/07 05:59:25;;;;;;;;;;;;;;;;;;5095350;28;19913;-52
2023/09/07 06:01:50;;;;;;;;;;;;;;;;;;5088670;28;19920;-52
2023/09/07 06:04:16;;;;;;;;;;;;;;;;;;5095255;28;19912;-53
2023/09/07 06:06:41;;;;;;;;;;;;;;;;;;5094793;28;19984;-57
2023/09/07 06:09:07;;;;;;;;;;;;;;;;;;5095119;28;19924;-56
2023/09/07 06:11:34;;;;;;;;;;;;;;;;;;5089096;28;19942;-50
2023/09/07 06:13:59;;;;;;;;;;;;;;;;;;5090162;28;19939;-51
2023/09/07 06:16:25;;;;;;;;;;;;;;;;;;5093387;28;19912;-52
2023/09/07 06:18:50;;;;;;;;;;;;;;;;;;5058307;28;19916;-53
2023/09/07 06:21:16;;;;;;;;;;;;;;;;;;5056361;28;19920;-53
2023/09/07 06:23:42;;;;;;;;;;;;;;;;;;5068706;28;19988;-54
2023/09/07 06:26:08;;;;;;;;;;;;;;;;;;5089074;28;19923;-51
2023/09/07 06:28:33;;;;;;;;;;;;;;;;;;5073735;28;19916;-51
2023/09/07 06:30:58;;;;;;;;;;;;;;;;;;5056736;28;19913;-53
2023/09/07 06:33:24;;;;;;;;;;;;;;;;;;5069224;28;19913;-51
2023/09/07 06:35:49;;;;;;;;;;;;;;;;;;5057635;28;19912;-53
2023/09/07 06:38:15;;;;;;;;;;;;;;;;;;5085531;28;19912;-55
2023/09/07 06:40:40;;;;;;;;;;;;;;;;;;5054163;28;19913;-54
2023/09/07 06:43:06;;;;;;;;;;;;;;;;;;5061306;28;19976;-54
2023/09/07 06:45:31;;;;;;;;;;;;;;;;;;5069615;28;19980;-50
2023/09/07 06:47:56;;;;;;;;;;;;;;;;;;5068237;28;19920;-53
2023/09/07 06:50:24;;;;;;;;;;;;;;;;;;5078847;28;19913;-50
2023/09/07 06:52:51;;;;;;;;;;;;;;;;;;5073903;28;19913;-53
2023/09/07 06:55:16;;;;;;;;;;;;;;;;;;5056877;28;19912;-51
2023/09/07 06:57:43;;;;;;;;;;;;;;;;;;5057094;28;19995;-54
2023/09/07 07:00:08;;;;;;;;;;;;;;;;;;5089441;28;19992;-52
2023/09/07 07:02:35;;;;;;;;;;;;;;;;;;5063823;28;19919;-53
2023/09/07 07:05:00;;;;;;;;;;;;;;;;;;5044004;28;19936;-50
2023/09/07 07:07:26;;;;;;;;;;;;;;;;;;5074697;28;19916;-54
2023/09/07 07:09:52;;;;;;;;;;;;;;;;;;5071382;28;19999;-54
2023/09/07 07:12:18;;;;;;;;;;;;;;;;;;5069303;28;19917;-55
2023/09/07 07:14:44;;;;;;;;;;;;;;;;;;5074379;28;19913;-53
2023/09/07 07:17:09;;;;;;;;;;;;;;;;;;5070422;28;19969;-52
2023/09/07 07:19:35;;;;;;;;;;;;;;;;;;5087434;28;19991;-50
2023/09/07 07:22:02;;;;;;;;;;;;;;;;;;5077246;28;19919;-54
2023/09/07 07:24:28;;;;;;;;;;;;;;;;;;5080620;28;19977;-51
2023/09/07 07:26:53;;;;;;;;;;;;;;;;;;5097931;28;19913;-52
2023/09/07 07:29:18;;;;;;;;;;;;;;;;;;5080136;28;20004;-50
2023/09/07 07:31:44;;;;;;;;;;;;;;;;;;5105351;28;19896;-53
2023/09/07 07:34:10;;;;;;;;;;;;;;;;;;5088626;28;19939;-53
2023/09/07 07:36:35;;;;;;;;;;;;;;;;;;5098227;28;19923;-57
2023/09/07 07:39:01;;;;;;;;;;;;;;;;;;5084643;28;19934;-56
2023/09/07 07:41:27;;;;;;;;;;;;;;;;;;5097501;28;20415;-52
2023/09/07 07:43:52;;;;;;;;;;;;;;;;;;5084394;28;19912;-51
2023/09/07 07:46:19;;;;;;;;;;;;;;;;;;5096002;28;19999;-55
2023/09/07 07:48:45;;;;;;;;;;;;;;;;;;5096821;28;19928;-54
2023/09/07 07:51:10;;;;;;;;;;;;;;;;;;5102485;28;19934;-55
2023/09/07 07:53:36;;;;;;;;;;;;;;;;;;5084851;28;19912;-55
2023/09/07 07:56:03;;;;;;;;;;;;;;;;;;5084317;28;19912;-55
2023/09/07 07:58:28;;;;;;;;;;;;;;;;;;5089469;28;19904;-51
2023/09/07 08:00:57;;;;;;;;;;;;;;;;;;5093473;28;19959;-54
2023/09/07 08:03:26;;;;;;;;;;;;;;;;;;5093363;28;19913;-51
2023/09/07 08:05:51;;;;;;;;;;;;;;;;;;5092528;28;19980;-53
2023/09/07 08:08:17;;;;;;;;;;;;;;;;;;5092437;28;19916;-52
2023/09/07 08:10:45;;;;;;;;;;;;;;;;;;5094030;28;19913;-56
2023/09/07 08:13:11;;;;;;;;;;;;;;;;;;5091526;28;19967;-53
2023/09/07 08:15:37;;;;;;;;;;;;;;;;;;5096552;28;19912;-53
2023/09/07 08:18:04;;;;;;;;;;;;;;;;;;5092225;28;19938;-52
2023/09/07 08:20:29;;;;;;;;;;;;;;;;;;5095089;28;19912;-54
2023/09/07 08:22:55;;;;;;;;;;;;;;;;;;5093140;28;19927;-53
2023/09/07 08:25:21;;;;;;;;;;;;;;;;;;5079751;28;19917;-53
2023/09/07 08:27:47;;;;;;;;;;;;;;;;;;5090527;28;19927;-55
2023/09/07 08:30:12;;;;;;;;;;;;;;;;;;5087734;28;19916;-55
2023/09/07 08:32:38;;;;;;;;;;;;;;;;;;5098093;28;19916;-55
2023/09/07 08:35:04;;;;;;;;;;;;;;;;;;5093831;28;19913;-55
2023/09/07 08:37:30;;;;;;;;;;;;;;;;;;5092213;28;19966;-53
2023/09/07 08:39:55;;;;;;;;;;;;;;;;;;5097025;28;19912;-56
2023/09/07 08:42:21;;;;;;;;;;;;;;;;;;5096699;28;19970;-55
2023/09/07 08:44:46;;;;;;;;;;;;;;;;;;5097281;28;19923;-55
2023/09/07 08:47:12;;;;;;;;;;;;;;;;;;5099695;28;19920;-56
2023/09/07 08:49:37;;;;;;;;;;;;;;;;;;5092144;28;19952;-57
2023/09/07 08:52:04;;;;;;;;;;;;;;;;;;5097045;28;19919;-56
2023/09/07 08:54:29;;;;;;;;;;;;;;;;;;5097043;28;19960;-57
2023/09/07 08:56:56;;;;;;;;;;;;;;;;;;5100660;28;19920;-56
2023/09/07 08:59:22;;;;;;;;;;;;;;;;;;5103737;28;19938;-52
2023/09/07 09:01:47;;;;;;;;;;;;;;;;;;5094474;28;19960;-53
2023/09/07 09:04:12;;;;;;;;;;;;;;;;;;5122347;28;19919;-55
2023/09/07 09:06:38;;;;;;;;;;;;;;;;;;5096915;28;19940;-56
2023/09/07 09:09:06;;;;;;;;;;;;;;;;;;5096357;28;19920;-56
2023/09/07 09:11:31;;;;;;;;;;;;;;;;;;5096789;28;19908;-53
2023/09/07 09:13:57;;;;;;;;;;;;;;;;;;5096762;28;19946;-57
2023/09/07 09:16:22;;;;;;;;;;;;;;;;;;5095657;28;19923;-56
2023/09/07 09:18:48;;;;;;;;;;;;;;;;;;5059186;28;19923;-54
2023/09/07 09:21:13;;;;;;;;;;;;;;;;;;5076377;28;19913;-56
2023/09/07 09:23:39;;;;;;;;;;;;;;;;;;5081003;28;19912;-56
2023/09/07 09:26:05;;;;;;;;;;;;;;;;;;5076422;28;19967;-55
2023/09/07 09:28:31;;;;;;;;;;;;;;;;;;5077720;28;20000;-56
2023/09/07 09:30:56;;;;;;;;;;;;;;;;;;5076401;28;19948;-57
2023/09/07 09:33:22;;;;;;;;;;;;;;;;;;5077294;28;19913;-57
2023/09/07 09:35:47;;;;;;;;;;;;;;;;;;5076513;28;19976;-56
2023/09/07 09:38:12;;;;;;;;;;;;;;;;;;5069825;28;19913;-55
2023/09/07 09:40:38;;;;;;;;;;;;;;;;;;5076816;28;19913;-56
2023/09/07 09:43:04;;;;;;;;;;;;;;;;;;5086587;28;19942;-57
2023/09/07 09:45:29;;;;;;;;;;;;;;;;;;5076391;28;19913;-54
2023/09/07 09:48:00;;;;;;;;;;;;;;;;;;5076049;28;19928;-53
2023/09/07 09:50:25;;;;;;;;;;;;;;;;;;5075912;28;19913;-53
2023/09/07 09:52:51;;;;;;;;;;;;;;;;;;5075796;28;19988;-57
2023/09/07 09:55:16;;;;;;;;;;;;;;;;;;5075993;28;19913;-56
2023/09/07 09:57:41;;;;;;;;;;;;;;;;;;5074561;28;19913;-58
2023/09/07 10:00:25;;;;;;;;;;;;;;;;;;5075627;28;19944;-57
2023/09/07 10:02:51;;;;;;;;;;;;;;;;;;5080407;28;19923;-55
2023/09/07 10:05:16;;;;;;;;;;;;;;;;;;5075504;28;19936;-53
2023/09/07 10:07:42;;;;;;;;;;;;;;;;;;5075112;28;19916;-54
2023/09/07 10:10:07;;;;;;;;;;;;;;;;;;5066942;28;19952;-56
2023/09/07 10:12:32;;;;;;;;;;;;;;;;;;5071475;28;19913;-54
2023/09/07 10:14:58;;;;;;;;;;;;;;;;;;5074196;28;20326;-58
2023/09/07 10:17:23;;;;;;;;;;;;;;;;;;5072303;28;19955;-55
2023/09/07 10:19:52;;;;;;;;;;;;;;;;;;5075234;28;19913;-58
2023/09/07 10:22:17;;;;;;;;;;;;;;;;;;5075125;28;19913;-54
2023/09/07 10:24:46;;;;;;;;;;;;;;;;;;5075031;28;19952;-59
2023/09/07 10:27:11;;;;;;;;;;;;;;;;;;5065430;28;20003;-56
2023/09/07 10:29:36;;;;;;;;;;;;;;;;;;5083633;28;19944;-58
2023/09/07 10:32:01;;;;;;;;;;;;;;;;;;5074757;28;19920;-58
2023/09/07 10:34:27;;;;;;;;;;;;;;;;;;5075040;28;19912;-58
2023/09/07 10:36:54;;;;;;;;;;;;;;;;;;5064969;28;19913;-59
2023/09/07 10:39:20;;;;;;;;;;;;;;;;;;5074516;28;19913;-58
2023/09/07 10:41:45;;;;;;;;;;;;;;;;;;5074986;28;19913;-59
2023/09/07 10:44:12;;;;;;;;;;;;;;;;;;5093668;28;19972;-56
2023/09/07 10:46:37;;;;;;;;;;;;;;;;;;5063889;28;19936;-58
2023/09/07 10:49:03;;;;;;;;;;;;;;;;;;5075633;28;19917;-57
2023/09/07 10:51:29;;;;;;;;;;;;;;;;;;5074601;28;20374;-60
2023/09/07 10:53:55;;;;;;;;;;;;;;;;;;5067230;28;19991;-59
2023/09/07 10:56:20;;;;;;;;;;;;;;;;;;5074401;28;20222;-57
2023/09/07 10:58:50;;;;;;;;;;;;;;;;;;5068380;28;19923;-59
2023/09/07 11:01:16;;;;;;;;;;;;;;;;;;5074278;28;19976;-59
2023/09/07 11:03:41;;;;;;;;;;;;;;;;;;5071452;28;19935;-57
2023/09/07 11:06:07;;;;;;;;;;;;;;;;;;5074613;28;19921;-58
2023/09/07 11:08:33;;;;;;;;;;;;;;;;;;5077264;28;19916;-58
2023/09/07 11:10:59;;;;;;;;;;;;;;;;;;5074027;28;19920;-58
2023/09/07 11:13:24;;;;;;;;;;;;;;;;;;5068113;28;19912;-59
2023/09/07 11:15:49;;;;;;;;;;;;;;;;;;5074064;28;19952;-59
2023/09/07 11:18:15;;;;;;;;;;;;;;;;;;5074980;28;19917;-60
2023/09/07 11:20:41;;;;;;;;;;;;;;;;;;5078311;28;21240;-58
2023/09/07 11:23:07;;;;;;;;;;;;;;;;;;5071845;28;20429;-60
2023/09/07 11:25:32;;;;;;;;;;;;;;;;;;5068349;28;19913;-60
2023/09/07 11:27:57;;;;;;;;;;;;;;;;;;5065025;28;19920;-59
2023/09/07 11:30:24;;;;;;;;;;;;;;;;;;5071190;28;19955;-58
2023/09/07 11:32:49;;;;;;;;;;;;;;;;;;5057288;28;19931;-59
2023/09/07 11:35:15;;;;;;;;;;;;;;;;;;5073265;28;19944;-59
2023/09/07 11:37:40;;;;;;;;;;;;;;;;;;5069026;28;19913;-59
2023/09/07 11:40:11;;;;;;;;;;;;;;;;;;5074380;28;19935;-58
2023/09/07 11:42:37;;;;;;;;;;;;;;;;;;5074625;28;19949;-59
2023/09/07 11:45:02;;;;;;;;;;;;;;;;;;5073504;28;19956;-59
2023/09/07 11:47:27;;;;;;;;;;;;;;;;;;5074230;28;19944;-59
2023/09/07 11:49:53;;;;;;;;;;;;;;;;;;5073889;28;19931;-59
2023/09/07 11:52:18;;;;;;;;;;;;;;;;;;5074048;28;19912;-59
2023/09/07 11:54:44;;;;;;;;;;;;;;;;;;5056853;28;19913;-59
2023/09/07 11:57:09;;;;;;;;;;;;;;;;;;5074180;28;19917;-59
2023/09/07 11:59:35;;;;;;;;;;;;;;;;;;5082516;28;19912;-60
2023/09/07 12:02:00;;;;;;;;;;;;;;;;;;5074153;28;19920;-58
2023/09/07 12:04:26;;;;;;;;;;;;;;;;;;5073905;28;19912;-58
2023/09/07 12:06:51;;;;;;;;;;;;;;;;;;5074107;28;19913;-59
2023/09/07 12:09:17;;;;;;;;;;;;;;;;;;5073661;28;19936;-60
2023/09/07 12:11:43;;;;;;;;;;;;;;;;;;5074238;28;19924;-61
2023/09/07 12:14:08;;;;;;;;;;;;;;;;;;5073736;28;19913;-59
2023/09/07 12:16:34;;;;;;;;;;;;;;;;;;5065820;28;19913;-59
2023/09/07 12:18:59;;;;;;;;;;;;;;;;;;5068430;28;19923;-58
2023/09/07 12:21:25;;;;;;;;;;;;;;;;;;5086186;28;19913;-61
2023/09/07 12:23:50;;;;;;;;;;;;;;;;;;5077678;28;19980;-60
2023/09/07 12:26:16;;;;;;;;;;;;;;;;;;5077060;28;19989;-59
2023/09/07 12:28:42;;;;;;;;;;;;;;;;;;5077279;28;19916;-60
2023/09/07 12:31:08;;;;;;;;;;;;;;;;;;5069426;28;19951;-59
2023/09/07 12:33:33;;;;;;;;;;;;;;;;;;5072404;28;19927;-59
2023/09/07 12:35:59;;;;;;;;;;;;;;;;;;5080678;28;19992;-60
2023/09/07 12:38:28;;;;;;;;;;;;;;;;;;5060883;28;20008;-59
2023/09/07 12:40:53;;;;;;;;;;;;;;;;;;5074514;28;19917;-60
2023/09/07 12:43:18;;;;;;;;;;;;;;;;;;5076589;28;19940;-59
2023/09/07 12:45:44;;;;;;;;;;;;;;;;;;5059927;28;19913;-60
2023/09/07 12:48:09;;;;;;;;;;;;;;;;;;5077100;28;19917;-60
2023/09/07 12:50:35;;;;;;;;;;;;;;;;;;5077406;28;19912;-59
2023/09/07 12:53:00;;;;;;;;;;;;;;;;;;5077098;28;19921;-59
2023/09/07 12:55:25;;;;;;;;;;;;;;;;;;5082353;28;19912;-60
2023/09/07 12:57:51;;;;;;;;;;;;;;;;;;5057827;28;19935;-59
2023/09/07 13:00:17;;;;;;;;;;;;;;;;;;5077071;28;19913;-59
2023/09/07 13:02:43;;;;;;;;;;;;;;;;;;5076711;28;19913;-60
2023/09/07 13:05:09;;;;;;;;;;;;;;;;;;5078048;28;19920;-58
2023/09/07 13:07:35;;;;;;;;;;;;;;;;;;5076391;28;19947;-60
2023/09/07 13:10:03;;;;;;;;;;;;;;;;;;5077546;28;19909;-60
2023/09/07 13:12:29;;;;;;;;;;;;;;;;;;5081146;28;19936;-60
2023/09/07 13:14:54;;;;;;;;;;;;;;;;;;5076933;28;19913;-60
2023/09/07 13:17:20;;;;;;;;;;;;;;;;;;5063086;28;19936;-59
2023/09/07 13:19:45;;;;;;;;;;;;;;;;;;5071552;28;19963;-59
2023/09/07 13:22:11;;;;;;;;;;;;;;;;;;5076505;28;19912;-60
2023/09/07 13:24:36;;;;;;;;;;;;;;;;;;5071721;28;19913;-59
2023/09/07 13:27:03;;;;;;;;;;;;;;;;;;5070768;28;19971;-59
2023/09/07 13:29:28;;;;;;;;;;;;;;;;;;5077582;28;19921;-59
2023/09/07 13:31:54;;;;;;;;;;;;;;;;;;5081750;28;19913;-60
2023/09/07 13:34:19;;;;;;;;;;;;;;;;;;5076182;28;19912;-60
2023/09/07 13:36:44;;;;;;;;;;;;;;;;;;5076380;28;19944;-59
2023/09/07 13:39:09;;;;;;;;;;;;;;;;;;5069801;28;19917;-60
2023/09/07 13:41:35;;;;;;;;;;;;;;;;;;5073578;28;19991;-59
2023/09/07 13:44:00;;;;;;;;;;;;;;;;;;5064000;28;19924;-60
2023/09/07 13:46:25;;;;;;;;;;;;;;;;;;5075441;28;19999;-60
2023/09/07 13:48:51;;;;;;;;;;;;;;;;;;5056330;28;19993;-60
2023/09/07 13:51:16;;;;;;;;;;;;;;;;;;5096255;28;19913;-59
2023/09/07 13:53:42;;;;;;;;;;;;;;;;;;5072090;28;20079;-60
2023/09/07 13:56:07;;;;;;;;;;;;;;;;;;5084165;28;19917;-59
2023/09/07 13:58:32;;;;;;;;;;;;;;;;;;5076021;28;19913;-59
2023/09/07 14:00:57;;;;;;;;;;;;;;;;;;5058066;28;19920;-60
2023/09/07 14:03:23;;;;;;;;;;;;;;;;;;5075685;28;19976;-60
2023/09/07 14:05:48;;;;;;;;;;;;;;;;;;5075468;28;19912;-60
2023/09/07 14:08:13;;;;;;;;;;;;;;;;;;5072675;28;19940;-59
2023/09/07 14:10:38;;;;;;;;;;;;;;;;;;5057567;28;19913;-59
2023/09/07 14:13:04;;;;;;;;;;;;;;;;;;5079036;28;19913;-59
2023/09/07 14:15:29;;;;;;;;;;;;;;;;;;5075426;28;20188;-60
2023/09/07 14:17:55;;;;;;;;;;;;;;;;;;5062174;28;19948;-60
2023/09/07 14:20:20;;;;;;;;;;;;;;;;;;5075647;28;20106;-59
2023/09/07 14:22:45;;;;;;;;;;;;;;;;;;5057782;28;19913;-60
2023/09/07 14:25:11;;;;;;;;;;;;;;;;;;5074915;28;19924;-61
2023/09/07 14:27:37;;;;;;;;;;;;;;;;;;5062232;28;19939;-59
2023/09/07 14:30:02;;;;;;;;;;;;;;;;;;5075595;28;19919;-60
2023/09/07 14:32:27;;;;;;;;;;;;;;;;;;5051606;28;19917;-60
2023/09/07 14:34:52;;;;;;;;;;;;;;;;;;5075479;28;19943;-59
2023/09/07 14:37:18;;;;;;;;;;;;;;;;;;5074062;28;19921;-59
2023/09/07 14:39:47;;;;;;;;;;;;;;;;;;5069191;28;19913;-60
2023/09/07 14:42:16;;;;;;;;;;;;;;;;;;5071782;28;20482;-60
2023/09/07 14:44:42;;;;;;;;;;;;;;;;;;5071556;28;19988;-58
2023/09/07 14:47:07;;;;;;;;;;;;;;;;;;5080922;28;20004;-59
2023/09/07 14:49:33;;;;;;;;;;;;;;;;;;5074455;28;19912;-59
2023/09/07 14:51:58;;;;;;;;;;;;;;;;;;5069358;28;19948;-60
2023/09/07 14:54:24;;;;;;;;;;;;;;;;;;5072050;28;19913;-59
2023/09/07 14:56:49;;;;;;;;;;;;;;;;;;5070805;28;20004;-59
2023/09/07 14:59:15;;;;;;;;;;;;;;;;;;5071773;28;19939;-60
2023/09/07 15:01:40;;;;;;;;;;;;;;;;;;5069929;28;19923;-60
2023/09/07 15:04:06;;;;;;;;;;;;;;;;;;5069757;28;19913;-60
2023/09/07 15:06:33;;;;;;;;;;;;;;;;;;5074417;28;19984;-59
2023/09/07 15:08:58;;;;;;;;;;;;;;;;;;5057287;28;19947;-59
2023/09/07 15:11:24;;;;;;;;;;;;;;;;;;5067027;28;19912;-59
2023/09/07 15:13:51;;;;;;;;;;;;;;;;;;5071062;28;19916;-59
2023/09/07 15:16:16;;;;;;;;;;;;;;;;;;5074898;28;19937;-58
2023/09/07 15:18:41;;;;;;;;;;;;;;;;;;5067348;28;19920;-59
2023/09/07 15:21:06;;;;;;;;;;;;;;;;;;5074578;28;20009;-59
2023/09/07 15:23:32;;;;;;;;;;;;;;;;;;5041350;28;19981;-59
2023/09/07 15:25:57;;;;;;;;;;;;;;;;;;5076876;28;19917;-60
2023/09/07 15:28:22;;;;;;;;;;;;;;;;;;5074714;28;19924;-58
2023/09/07 15:30:48;;;;;;;;;;;;;;;;;;5074634;28;19917;-60
2023/09/07 15:33:13;;;;;;;;;;;;;;;;;;5074601;28;19913;-59
2023/09/07 15:35:39;;;;;;;;;;;;;;;;;;5074349;28;19920;-59
2023/09/07 15:38:04;;;;;;;;;;;;;;;;;;5069087;28;19939;-59
2023/09/07 15:40:30;;;;;;;;;;;;;;;;;;5074297;28;19931;-59
2023/09/07 15:42:55;;;;;;;;;;;;;;;;;;5062110;28;19912;-59
2023/09/07 15:45:21;;;;;;;;;;;;;;;;;;5073954;28;19917;-60
2023/09/07 15:47:47;;;;;;;;;;;;;;;;;;5062958;28;19972;-60
2023/09/07 15:50:13;;;;;;;;;;;;;;;;;;5071535;28;19912;-60
2023/09/07 15:52:38;;;;;;;;;;;;;;;;;;5082165;28;19995;-59
2023/09/07 15:55:03;;;;;;;;;;;;;;;;;;5076908;28;19933;-59
2023/09/07 15:57:29;;;;;;;;;;;;;;;;;;5080324;28;19913;-60
2023/09/07 15:59:56;;;;;;;;;;;;;;;;;;5078011;28;19976;-60
2023/09/07 16:02:21;;;;;;;;;;;;;;;;;;5087424;28;19917;-59
2023/09/07 16:04:46;;;;;;;;;;;;;;;;;;5079612;28;19947;-59
2023/09/07 16:07:12;;;;;;;;;;;;;;;;;;5088476;28;19912;-58
2023/09/07 16:09:39;;;;;;;;;;;;;;;;;;5079517;28;19923;-59
2023/09/07 16:12:04;;;;;;;;;;;;;;;;;;5078312;28;19913;-59
2023/09/07 16:14:30;;;;;;;;;;;;;;;;;;5077799;28;19928;-59
2023/09/07 16:16:55;;;;;;;;;;;;;;;;;;5077852;28;19924;-56
2023/09/07 16:19:21;;;;;;;;;;;;;;;;;;5077194;28;19916;-59
2023/09/07 16:21:46;;;;;;;;;;;;;;;;;;5070480;28;19936;-58
2023/09/07 16:24:11;;;;;;;;;;;;;;;;;;5075319;28;19949;-58
2023/09/07 16:26:37;;;;;;;;;;;;;;;;;;5069307;28;19913;-58
2023/09/07 16:29:02;;;;;;;;;;;;;;;;;;5069942;28;19927;-56
2023/09/07 16:31:27;;;;;;;;;;;;;;;;;;5078048;28;19925;-57
2023/09/07 16:33:53;;;;;;;;;;;;;;;;;;5060453;28;19921;-54
2023/09/07 16:36:19;;;;;;;;;;;;;;;;;;5077481;28;19913;-56